Time;durP1;ratioP1;P1;durP2;ratioP2;P2;SDS_P1;SDS_P2;PMS_P1;PMS_P2;Temp;Humidity;BMP_temperature;BMP_pressure;BME280_temperature;BME280_humidity;BME280_pressure;Samples;Min_cycle;Max_cycle;Signal;HPM_P1;HPM_P2
2021/11/15 00:02:22;;;;;;;21.93;15.47;;;8.10;1.00;;;;;;4989143;28;20224;-76
2021/11/15 00:04:48;;;;;;;21.80;14.50;;;8.10;1.00;;;;;;4987807;28;20789;-76
2021/11/15 00:07:14;;;;;;;25.23;14.73;;;8.00;1.00;;;;;;4985967;28;21032;-76
2021/11/15 00:09:40;;;;;;;23.13;15.47;;;8.00;1.00;;;;;;4985601;28;20550;-77
2021/11/15 00:12:07;;;;;;;22.37;14.97;;;7.90;1.00;;;;;;4987136;28;20328;-76
2021/11/15 00:14:32;;;;;;;21.90;14.40;;;7.90;1.00;;;;;;4985018;28;20452;-77
2021/11/15 00:16:58;;;;;;;22.83;16.20;;;7.90;1.00;;;;;;4987856;28;20481;-77
2021/11/15 00:19:24;;;;;;;20.17;13.90;;;7.80;1.00;;;;;;4986820;28;20327;-76
2021/11/15 00:21:50;;;;;;;23.93;15.40;;;7.90;1.00;;;;;;4986262;28;20858;-77
2021/11/15 00:24:15;;;;;;;19.93;13.97;;;7.90;1.00;;;;;;4986122;28;20212;-76
2021/11/15 00:26:41;;;;;;;24.20;14.50;;;7.90;1.00;;;;;;4988221;28;20479;-77
2021/11/15 00:29:07;;;;;;;21.07;13.50;;;7.90;1.00;;;;;;4986710;28;20220;-76
2021/11/15 00:31:33;;;;;;;19.80;14.00;;;7.80;1.00;;;;;;4985059;28;20464;-76
2021/11/15 00:33:59;;;;;;;21.27;13.80;;;7.80;1.00;;;;;;4987885;28;20276;-77
2021/11/15 00:36:24;;;;;;;20.43;13.17;;;7.80;1.00;;;;;;4985741;28;20455;-77
2021/11/15 00:38:50;;;;;;;20.17;13.33;;;7.80;1.00;;;;;;4987364;28;20278;-77
2021/11/15 00:41:16;;;;;;;24.37;14.47;;;7.80;1.00;;;;;;4988516;28;20194;-77
2021/11/15 00:43:42;;;;;;;21.57;14.03;;;7.80;1.00;;;;;;4989718;28;20482;-77
2021/11/15 00:46:09;;;;;;;23.17;15.23;;;7.80;1.00;;;;;;4988271;28;20451;-76
2021/11/15 00:48:34;;;;;;;19.40;13.93;;;7.80;1.00;;;;;;4990688;28;20502;-76
2021/11/15 00:51:00;;;;;;;20.33;13.63;;;7.80;1.00;;;;;;4987600;28;20543;-76
2021/11/15 00:53:27;;;;;;;19.13;13.33;;;7.80;1.00;;;;;;4990034;28;20986;-77
2021/11/15 00:55:53;;;;;;;18.53;13.37;;;7.70;1.00;;;;;;4988846;28;21185;-77
2021/11/15 00:58:19;;;;;;;19.03;13.60;;;7.80;1.00;;;;;;4973802;28;20541;-76
2021/11/15 01:00:44;;;;;;;18.67;12.93;;;7.70;1.00;;;;;;4973259;28;20208;-76
2021/11/15 01:03:12;;;;;;;19.87;12.70;;;7.80;1.00;;;;;;4985786;28;20483;-77
2021/11/15 01:05:39;;;;;;;22.93;14.50;;;7.70;1.00;;;;;;4986257;28;20721;-76
2021/11/15 01:08:06;;;;;;;18.97;13.37;;;7.70;1.00;;;;;;4989727;28;20510;-76
2021/11/15 01:10:33;;;;;;;19.60;13.60;;;7.70;1.00;;;;;;4972802;28;20459;-76
2021/11/15 01:13:00;;;;;;;21.10;14.03;;;7.70;1.00;;;;;;4992183;28;20503;-77
2021/11/15 01:15:29;;;;;;;21.97;15.50;;;7.60;1.00;;;;;;4989421;28;20467;-77
2021/11/15 01:17:55;;;;;;;26.37;16.53;;;7.60;1.00;;;;;;4991208;28;21281;-77
2021/11/15 01:20:30;;;;;;;21.73;15.13;;;7.60;1.00;;;;;;4993469;28;20458;-76
2021/11/15 01:22:57;;;;;;;23.90;13.53;;;7.60;1.00;;;;;;4990782;28;20466;-77
2021/11/15 01:25:23;;;;;;;20.00;13.03;;;7.60;1.00;;;;;;4990740;28;20455;-77
2021/11/15 01:27:49;;;;;;;22.40;13.30;;;7.70;1.00;;;;;;4991196;28;20502;-76
2021/11/15 01:30:17;;;;;;;27.77;16.40;;;7.70;1.00;;;;;;4988853;28;20459;-76
2021/11/15 01:32:43;;;;;;;22.83;15.43;;;7.70;1.00;;;;;;4990443;28;20294;-77
2021/11/15 01:35:09;;;;;;;24.40;15.40;;;7.80;1.00;;;;;;4973761;28;21127;-76
2021/11/15 01:37:37;;;;;;;22.10;15.07;;;7.70;1.00;;;;;;4989074;28;20461;-76
2021/11/15 01:40:04;;;;;;;23.00;15.60;;;7.60;1.00;;;;;;4987158;28;20454;-77
2021/11/15 01:42:30;;;;;;;25.20;15.67;;;7.60;1.00;;;;;;4990221;28;20494;-77
2021/11/15 01:44:55;;;;;;;28.07;17.00;;;7.70;1.00;;;;;;4986224;28;21369;-77
2021/11/15 01:47:21;;;;;;;25.60;17.10;;;7.70;1.00;;;;;;4988390;28;20204;-76
2021/11/15 01:49:47;;;;;;;23.37;14.57;;;7.70;1.00;;;;;;4989079;28;20188;-76
2021/11/15 01:52:13;;;;;;;28.60;16.40;;;7.60;1.00;;;;;;4987352;28;20478;-76
2021/11/15 01:54:39;;;;;;;25.10;16.40;;;7.60;1.00;;;;;;4990665;28;20490;-77
2021/11/15 01:57:05;;;;;;;29.77;17.63;;;7.60;1.00;;;;;;4989663;28;20211;-76
2021/11/15 01:59:31;;;;;;;23.87;16.30;;;7.50;1.00;;;;;;4991870;28;20204;-76
2021/11/15 02:01:58;;;;;;;25.97;16.70;;;7.50;1.00;;;;;;4989382;28;20562;-77
2021/11/15 02:04:24;;;;;;;29.47;18.37;;;7.50;1.00;;;;;;4993421;28;20463;-76
2021/11/15 02:06:51;;;;;;;26.80;17.00;;;7.50;1.00;;;;;;4987199;28;20522;-76
2021/11/15 02:09:17;;;;;;;23.47;15.03;;;7.60;1.00;;;;;;4988856;28;20777;-76
2021/11/15 02:11:43;;;;;;;26.77;17.30;;;7.60;1.00;;;;;;4986863;28;20466;-76
2021/11/15 02:14:08;;;;;;;24.17;17.33;;;7.60;1.00;;;;;;4989216;28;20192;-76
2021/11/15 02:16:34;;;;;;;26.00;17.37;;;7.50;1.00;;;;;;4988922;28;20185;-76
2021/11/15 02:19:00;;;;;;;27.50;18.60;;;7.50;1.00;;;;;;4991023;28;20207;-76
2021/11/15 02:21:26;;;;;;;28.33;18.10;;;7.50;1.00;;;;;;4989748;28;20189;-77
2021/11/15 02:23:52;;;;;;;28.30;18.40;;;7.50;1.00;;;;;;4988491;28;20494;-77
2021/11/15 02:26:20;;;;;;;24.20;16.83;;;7.50;1.00;;;;;;4992564;28;20184;-77
2021/11/15 02:28:48;;;;;;;26.10;16.03;;;7.50;1.00;;;;;;4989439;28;21079;-76
2021/11/15 02:31:17;;;;;;;28.07;17.53;;;7.60;1.00;;;;;;4989754;28;20451;-77
2021/11/15 02:33:45;;;;;;;29.17;17.73;;;7.60;1.00;;;;;;4988485;28;20538;-77
2021/11/15 02:36:11;;;;;;;28.37;17.83;;;7.60;1.00;;;;;;4994527;28;20459;-77
2021/11/15 02:38:38;;;;;;;31.23;17.80;;;7.50;1.00;;;;;;4990609;28;20459;-77
2021/11/15 02:41:04;;;;;;;28.30;18.17;;;7.50;1.00;;;;;;4995410;28;20453;-76
2021/11/15 02:43:31;;;;;;;34.63;18.63;;;7.50;1.00;;;;;;4992601;28;20487;-76
2021/11/15 02:45:56;;;;;;;29.63;18.77;;;7.40;1.00;;;;;;4972182;28;21386;-76
2021/11/15 02:48:25;;;;;;;29.33;16.70;;;7.40;1.00;;;;;;4990979;28;20487;-77
2021/11/15 02:50:51;;;;;;;28.53;17.83;;;7.50;1.00;;;;;;4991786;28;20185;-77
2021/11/15 02:53:17;;;;;;;28.70;18.30;;;7.50;1.00;;;;;;4987672;28;20554;-76
2021/11/15 02:55:44;;;;;;;26.30;17.17;;;7.50;1.00;;;;;;4989086;28;20489;-77
2021/11/15 02:58:11;;;;;;;31.13;17.47;;;7.50;1.00;;;;;;4988568;28;20456;-77
2021/11/15 03:00:56;;;;;;;27.47;18.03;;;7.50;1.00;;;;;;4992720;28;20493;-76
2021/11/15 03:03:23;;;;;;;30.73;17.53;;;7.50;1.00;;;;;;4996373;28;20490;-75
2021/11/15 03:05:51;;;;;;;30.37;17.20;;;7.40;1.00;;;;;;4994837;28;20440;-76
2021/11/15 03:08:19;;;;;;;25.43;16.73;;;7.50;1.00;;;;;;4992906;28;20821;-77
2021/11/15 03:10:46;;;;;;;26.93;16.73;;;7.40;1.00;;;;;;4990631;28;20466;-76
2021/11/15 03:13:14;;;;;;;32.10;17.93;;;7.40;1.00;;;;;;4994659;28;20439;-76
2021/11/15 03:15:49;;;;;;;30.43;18.57;;;7.40;1.00;;;;;;4995891;28;21258;-76
2021/11/15 03:18:24;;;;;;;31.23;18.60;;;7.40;1.00;;;;;;4995688;28;20565;-76
2021/11/15 03:20:53;;;;;;;28.40;18.23;;;7.40;1.00;;;;;;4994222;28;20459;-76
2021/11/15 03:23:22;;;;;;;29.33;19.17;;;7.40;1.00;;;;;;4994132;28;20525;-76
2021/11/15 03:25:49;;;;;;;28.73;17.90;;;7.30;1.00;;;;;;4989618;28;21137;-77
2021/11/15 03:28:19;;;;;;;27.43;17.60;;;7.30;1.00;;;;;;4990635;28;20471;-77
2021/11/15 03:30:45;;;;;;;32.10;19.23;;;7.30;1.00;;;;;;4991233;28;20494;-77
2021/11/15 03:33:12;;;;;;;32.93;19.50;;;7.40;1.00;;;;;;4994620;28;20474;-76
2021/11/15 03:35:38;;;;;;;27.63;17.67;;;7.40;1.00;;;;;;4994322;28;20678;-77
2021/11/15 03:38:05;;;;;;;28.07;17.87;;;7.30;1.00;;;;;;4989458;28;20539;-77
2021/11/15 03:40:31;;;;;;;32.80;18.67;;;7.30;1.00;;;;;;4992850;28;21397;-76
2021/11/15 03:43:00;;;;;;;26.03;16.70;;;7.30;1.00;;;;;;4993551;28;20521;-77
2021/11/15 03:45:27;;;;;;;27.60;14.63;;;7.30;1.00;;;;;;4981330;28;20776;-76
2021/11/15 03:47:54;;;;;;;29.60;17.50;;;7.30;1.00;;;;;;4991477;28;20470;-76
2021/11/15 03:50:20;;;;;;;28.93;16.30;;;7.30;1.00;;;;;;4992389;28;20514;-76
2021/11/15 03:52:47;;;;;;;28.67;16.67;;;7.20;1.00;;;;;;4990442;28;20487;-76
2021/11/15 03:55:15;;;;;;;31.03;17.83;;;7.20;1.00;;;;;;4997057;28;22219;-77
2021/11/15 03:57:41;;;;;;;31.40;16.80;;;7.30;1.00;;;;;;5001584;28;20447;-77
2021/11/15 04:00:10;;;;;;;26.77;14.87;;;7.20;1.00;;;;;;5000249;28;21032;-76
2021/11/15 04:02:42;;;;;;;25.80;15.90;;;7.20;1.00;;;;;;5003746;28;20854;-76
2021/11/15 04:05:09;;;;;;;28.30;16.87;;;7.20;1.00;;;;;;4990158;28;20534;-76
2021/11/15 04:07:39;;;;;;;28.00;16.23;;;7.20;1.00;;;;;;4990377;28;21494;-77
2021/11/15 04:10:08;;;;;;;29.00;16.77;;;7.20;1.00;;;;;;4991849;28;20543;-76
2021/11/15 04:12:33;;;;;;;29.30;17.30;;;7.20;1.00;;;;;;4968647;28;20451;-76
2021/11/15 04:14:59;;;;;;;27.67;18.20;;;7.20;1.00;;;;;;4994832;28;21326;-76
2021/11/15 04:17:25;;;;;;;30.77;19.40;;;7.20;1.00;;;;;;4990374;28;21105;-76
2021/11/15 04:19:52;;;;;;;34.57;18.40;;;7.20;1.00;;;;;;4992336;28;21081;-76
2021/11/15 04:22:18;;;;;;;29.70;17.43;;;7.10;1.00;;;;;;4992100;28;20300;-76
2021/11/15 04:24:44;;;;;;;29.93;16.83;;;7.10;1.00;;;;;;4990499;28;20448;-77
2021/11/15 04:27:10;;;;;;;27.73;17.77;;;7.10;1.00;;;;;;4992488;28;20216;-77
2021/11/15 04:29:36;;;;;;;25.93;15.60;;;7.10;1.00;;;;;;4986693;28;21203;-76
2021/11/15 04:32:05;;;;;;;27.40;16.00;;;7.10;1.00;;;;;;4980797;28;20200;-77
2021/11/15 04:34:32;;;;;;;26.90;16.27;;;7.10;1.00;;;;;;4984207;28;20463;-77
2021/11/15 04:36:58;;;;;;;31.30;16.70;;;7.20;1.00;;;;;;4986417;28;20466;-77
2021/11/15 04:39:23;;;;;;;27.93;16.20;;;7.10;1.00;;;;;;4989053;28;21896;-76
2021/11/15 04:41:49;;;;;;;30.20;16.37;;;7.10;1.00;;;;;;4995942;28;20733;-77
2021/11/15 04:44:15;;;;;;;31.10;16.37;;;7.10;1.00;;;;;;4987180;28;20196;-76
2021/11/15 04:46:41;;;;;;;33.10;17.63;;;7.00;1.00;;;;;;4987883;28;20658;-76
2021/11/15 04:49:06;;;;;;;30.33;16.53;;;7.00;1.00;;;;;;4972839;28;20200;-76
2021/11/15 04:51:32;;;;;;;30.07;17.63;;;7.10;1.00;;;;;;4992423;28;20185;-77
2021/11/15 04:53:58;;;;;;;27.90;17.27;;;7.10;1.00;;;;;;4992323;28;20266;-77
2021/11/15 04:56:23;;;;;;;34.13;17.40;;;7.00;1.00;;;;;;4995431;28;20287;-77
2021/11/15 04:58:50;;;;;;;34.60;18.50;;;7.10;1.00;;;;;;4995440;28;20188;-77
2021/11/15 05:01:16;;;;;;;35.20;17.53;;;7.10;1.00;;;;;;4997171;28;20270;-76
2021/11/15 05:03:42;;;;;;;27.80;16.60;;;7.10;1.00;;;;;;5001671;28;20483;-77
2021/11/15 05:06:08;;;;;;;31.60;16.00;;;7.10;1.00;;;;;;4996341;28;20536;-77
2021/11/15 05:08:34;;;;;;;27.57;15.77;;;7.20;1.00;;;;;;5000196;28;20192;-77
2021/11/15 05:11:00;;;;;;;33.53;17.00;;;7.20;1.00;;;;;;4997986;28;20222;-76
2021/11/15 05:13:25;;;;;;;31.53;16.67;;;7.10;1.00;;;;;;4989394;28;20461;-77
2021/11/15 05:15:51;;;;;;;32.10;17.33;;;7.10;1.00;;;;;;4994885;28;20473;-76
2021/11/15 05:18:17;;;;;;;30.23;16.80;;;7.00;1.00;;;;;;4996992;28;20463;-76
2021/11/15 05:20:43;;;;;;;34.07;19.97;;;7.00;1.00;;;;;;4969589;28;20275;-77
2021/11/15 05:23:09;;;;;;;29.33;17.37;;;7.10;1.00;;;;;;4975981;28;20266;-77
2021/11/15 05:25:35;;;;;;;30.67;16.40;;;7.10;1.00;;;;;;4994107;28;20192;-76
2021/11/15 05:28:00;;;;;;;29.80;17.03;;;7.10;1.00;;;;;;5003771;28;20501;-77
2021/11/15 05:30:26;;;;;;;30.03;17.13;;;7.00;1.00;;;;;;4997893;28;20462;-77
2021/11/15 05:32:55;;;;;;;30.60;17.47;;;7.00;1.00;;;;;;4986046;28;20525;-77
2021/11/15 05:35:22;;;;;;;28.43;16.07;;;7.00;1.00;;;;;;4988263;28;20208;-76
2021/11/15 05:37:49;;;;;;;30.00;17.37;;;6.90;1.00;;;;;;4989181;28;20456;-77
2021/11/15 05:40:16;;;;;;;34.83;17.57;;;6.90;1.00;;;;;;4992936;28;20455;-76
2021/11/15 05:42:42;;;;;;;29.30;16.47;;;6.90;1.00;;;;;;4995906;28;20473;-78
2021/11/15 05:45:09;;;;;;;28.00;17.57;;;6.90;1.00;;;;;;4989760;28;21060;-77
2021/11/15 05:47:35;;;;;;;32.20;18.43;;;6.90;1.00;;;;;;4991865;28;20262;-77
2021/11/15 05:50:03;;;;;;;27.90;16.90;;;7.00;1.00;;;;;;4994299;28;20453;-77
2021/11/15 05:52:29;;;;;;;30.63;18.63;;;7.00;1.00;;;;;;4995884;28;20478;-77
2021/11/15 05:54:55;;;;;;;31.53;17.90;;;7.00;1.00;;;;;;4999650;28;20542;-77
2021/11/15 05:57:21;;;;;;;28.47;17.53;;;6.90;1.00;;;;;;4993271;28;20457;-77
2021/11/15 05:59:47;;;;;;;28.77;16.40;;;7.00;1.00;;;;;;4990944;28;20291;-77
2021/11/15 06:02:12;;;;;;;29.77;16.37;;;6.90;1.00;;;;;;4986128;28;20212;-76
2021/11/15 06:04:38;;;;;;;31.80;17.20;;;6.90;1.00;;;;;;4988711;28;20955;-76
2021/11/15 06:07:05;;;;;;;32.27;16.93;;;6.90;1.00;;;;;;4985354;28;20196;-76
2021/11/15 06:09:30;;;;;;;28.23;15.97;;;7.00;1.00;;;;;;4969699;28;20196;-76
2021/11/15 06:11:56;;;;;;;30.83;16.80;;;7.10;1.00;;;;;;4995961;28;21023;-76
2021/11/15 06:14:21;;;;;;;31.33;16.97;;;7.10;1.00;;;;;;4994726;28;20177;-76
2021/11/15 06:16:47;;;;;;;28.00;17.07;;;7.00;1.00;;;;;;4992624;28;20184;-76
2021/11/15 06:19:13;;;;;;;31.13;16.43;;;7.10;1.00;;;;;;4996507;28;20213;-75
2021/11/15 06:21:38;;;;;;;35.27;19.10;;;7.00;1.00;;;;;;4990495;28;20673;-76
2021/11/15 06:24:04;;;;;;;36.90;18.70;;;6.90;1.00;;;;;;4994106;28;20216;-77
2021/11/15 06:26:31;;;;;;;34.37;18.60;;;6.90;1.00;;;;;;4995105;28;20573;-78
2021/11/15 06:28:57;;;;;;;32.70;18.50;;;6.90;1.00;;;;;;4995083;28;20879;-78
2021/11/15 06:31:23;;;;;;;33.27;17.23;;;6.90;1.00;;;;;;4991807;28;21131;-78
2021/11/15 06:33:49;;;;;;;32.63;19.10;;;7.00;1.00;;;;;;4996319;28;20642;-78
2021/11/15 06:36:22;;;;;;;34.17;18.70;;;6.90;1.00;;;;;;4993019;28;20533;-77
2021/11/15 06:38:49;;;;;;;30.70;18.37;;;7.00;1.00;;;;;;4995414;28;20593;-79
2021/11/15 06:41:14;;;;;;;36.37;18.90;;;7.00;1.00;;;;;;4995785;28;20462;-80
2021/11/15 06:43:41;;;;;;;30.10;17.17;;;7.00;1.00;;;;;;4991833;28;20475;-79
2021/11/15 06:46:06;;;;;;;34.77;19.17;;;7.00;1.00;;;;;;4993868;28;20551;-78
2021/11/15 06:48:37;;;;;;;34.10;18.10;;;6.90;1.00;;;;;;4998027;28;20466;-79
2021/11/15 06:51:04;;;;;;;33.70;18.70;;;6.90;1.00;;;;;;4988749;28;20204;-79
2021/11/15 06:53:31;;;;;;;34.67;19.67;;;6.90;1.00;;;;;;4989893;28;20523;-80
2021/11/15 06:55:58;;;;;;;36.90;18.40;;;6.80;1.00;;;;;;4989749;28;20557;-79
2021/11/15 06:58:25;;;;;;;36.80;18.30;;;6.90;1.00;;;;;;4995384;28;20474;-78
2021/11/15 07:00:51;;;;;;;36.20;18.93;;;6.90;1.00;;;;;;4992715;28;20452;-79
2021/11/15 07:03:17;;;;;;;35.30;18.50;;;6.90;1.00;;;;;;4986526;28;20478;-78
2021/11/15 07:05:43;;;;;;;34.33;17.97;;;6.90;1.00;;;;;;4995562;28;20180;-79
2021/11/15 07:08:09;;;;;;;34.07;17.50;;;6.90;1.00;;;;;;4990033;28;20185;-79
2021/11/15 07:10:35;;;;;;;32.87;17.70;;;6.80;1.00;;;;;;4992870;28;20494;-79
2021/11/15 07:13:01;;;;;;;30.90;17.33;;;6.90;1.00;;;;;;4995237;28;21381;-79
2021/11/15 07:15:27;;;;;;;31.80;17.83;;;6.90;1.00;;;;;;4987907;28;20443;-79
2021/11/15 07:17:53;;;;;;;35.10;16.37;;;6.90;1.00;;;;;;4985692;28;20474;-79
2021/11/15 07:20:18;;;;;;;28.90;15.50;;;6.90;1.00;;;;;;4991875;28;20242;-80
2021/11/15 07:22:47;;;;;;;32.60;15.97;;;6.80;1.00;;;;;;4965491;28;21001;-79
2021/11/15 07:25:14;;;;;;;33.77;15.63;;;6.80;1.00;;;;;;4973638;28;20326;-79
2021/11/15 07:27:40;;;;;;;29.83;15.93;;;6.80;1.00;;;;;;4983368;28;20811;-79
2021/11/15 07:30:06;;;;;;;24.83;14.37;;;6.80;1.00;;;;;;4987377;28;20471;-79
2021/11/15 07:32:32;;;;;;;27.70;14.63;;;6.80;1.00;;;;;;4987118;28;20728;-79
2021/11/15 07:34:58;;;;;;;34.47;17.07;;;6.90;1.00;;;;;;4984499;28;20502;-78
2021/11/15 07:37:23;;;;;;;28.07;14.67;;;6.90;1.00;;;;;;4980013;28;20196;-79
2021/11/15 07:39:49;;;;;;;28.67;15.67;;;6.90;1.00;;;;;;4982214;28;20206;-79
2021/11/15 07:42:17;;;;;;;33.17;15.00;;;6.80;1.00;;;;;;4982099;28;20243;-78
2021/11/15 07:44:44;;;;;;;25.70;14.67;;;6.80;1.00;;;;;;4985488;28;20283;-79
2021/11/15 07:47:10;;;;;;;28.30;14.47;;;6.80;1.00;;;;;;4983182;28;20474;-79
2021/11/15 07:49:37;;;;;;;25.23;14.50;;;6.80;1.00;;;;;;4973047;28;20475;-78
2021/11/15 07:52:03;;;;;;;28.93;16.07;;;6.80;1.00;;;;;;4965224;28;20455;-78
2021/11/15 07:54:29;;;;;;;34.27;16.77;;;6.80;1.00;;;;;;4963720;28;20558;-78
2021/11/15 07:56:55;;;;;;;26.00;13.33;;;6.80;1.00;;;;;;4985283;28;21078;-78
2021/11/15 07:59:21;;;;;;;27.37;14.63;;;6.80;1.00;;;;;;4978424;28;20459;-78
2021/11/15 08:01:47;;;;;;;23.00;13.53;;;6.80;1.00;;;;;;4974102;28;20193;-78
2021/11/15 08:04:13;;;;;;;21.13;11.83;;;6.70;1.00;;;;;;4976023;28;20470;-78
2021/11/15 08:06:38;;;;;;;27.17;14.53;;;6.70;1.00;;;;;;4972346;28;20203;-79
2021/11/15 08:09:04;;;;;;;26.90;14.53;;;6.60;1.00;;;;;;4980975;28;20200;-78
2021/11/15 08:11:31;;;;;;;29.17;14.77;;;6.70;1.00;;;;;;4978195;28;20188;-79
2021/11/15 08:13:57;;;;;;;30.87;15.90;;;6.70;1.00;;;;;;4980110;28;20529;-79
2021/11/15 08:16:23;;;;;;;27.03;15.63;;;6.60;1.00;;;;;;4977253;28;20868;-79
2021/11/15 08:18:49;;;;;;;27.47;16.20;;;6.50;1.00;;;;;;4984149;28;20458;-78
2021/11/15 08:21:15;;;;;;;29.70;17.20;;;6.50;1.00;;;;;;4984295;28;21047;-79
2021/11/15 08:23:43;;;;;;;26.00;15.40;;;6.50;1.00;;;;;;4979970;28;20216;-80
2021/11/15 08:26:38;;;;;;;27.43;15.93;;;6.60;1.00;;;;;;4982783;28;20505;-78
2021/11/15 08:29:08;;;;;;;35.03;18.30;;;6.60;1.00;;;;;;4983163;28;20487;-78
2021/11/15 08:31:35;;;;;;;26.43;17.77;;;6.50;1.00;;;;;;4981290;28;20482;-78
2021/11/15 08:34:02;;;;;;;31.33;18.20;;;6.60;6.40;;;;;;4978618;28;20471;-78
2021/11/15 08:36:28;;;;;;;32.20;16.97;;;6.60;5.80;;;;;;4982105;28;20450;-78
2021/11/15 08:39:04;;;;;;;27.43;17.97;;;6.60;11.70;;;;;;4977597;28;20539;-77
2021/11/15 08:41:33;;;;;;;26.73;16.50;;;6.60;13.20;;;;;;4981609;28;20891;-79
2021/11/15 08:44:01;;;;;;;32.37;18.90;;;6.50;5.40;;;;;;4981894;28;20526;-78
2021/11/15 08:46:29;;;;;;;34.33;18.23;;;6.50;6.30;;;;;;4980485;28;20444;-78
2021/11/15 08:48:56;;;;;;;29.60;17.93;;;6.60;9.90;;;;;;4982030;28;20471;-78
2021/11/15 08:51:22;;;;;;;32.10;17.30;;;6.60;6.60;;;;;;4981407;28;20447;-78
2021/11/15 08:53:49;;;;;;;29.50;17.63;;;6.70;7.70;;;;;;4980007;28;20513;-78
2021/11/15 08:56:16;;;;;;;30.53;17.83;;;6.60;3.40;;;;;;4981157;28;20952;-78
2021/11/15 08:58:41;;;;;;;28.20;16.73;;;6.60;9.90;;;;;;4991115;28;20451;-78
2021/11/15 09:01:09;;;;;;;30.20;17.07;;;6.60;16.20;;;;;;4983336;28;20448;-77
2021/11/15 09:03:39;;;;;;;27.90;16.57;;;6.60;18.00;;;;;;4979831;28;20491;-78
2021/11/15 09:06:06;;;;;;;29.33;18.23;;;6.70;13.80;;;;;;4982428;28;21316;-77
2021/11/15 09:08:33;;;;;;;29.03;17.40;;;6.80;20.90;;;;;;4985638;28;20431;-78
2021/11/15 09:10:59;;;;;;;32.30;18.10;;;6.80;17.10;;;;;;4983208;28;22912;-77
2021/11/15 09:13:24;;;;;;;32.00;17.00;;;6.80;17.00;;;;;;4986851;28;20562;-78
2021/11/15 09:15:51;;;;;;;29.60;16.60;;;6.80;27.50;;;;;;4969463;28;20578;-78
2021/11/15 09:18:16;;;;;;;26.43;15.70;;;6.80;26.50;;;;;;4993574;28;20193;-78
2021/11/15 09:20:42;;;;;;;32.60;15.97;;;6.80;29.90;;;;;;4994383;28;20454;-78
2021/11/15 09:23:08;;;;;;;28.50;16.17;;;6.90;33.60;;;;;;4992246;28;20219;-76
2021/11/15 09:25:34;;;;;;;35.60;17.27;;;6.90;43.00;;;;;;4993495;28;21205;-78
2021/11/15 09:28:00;;;;;;;27.90;16.77;;;7.00;49.10;;;;;;4993860;28;20208;-78
2021/11/15 09:30:27;;;;;;;29.50;16.07;;;7.00;27.70;;;;;;4993654;28;20474;-77
2021/11/15 09:32:52;;;;;;;26.57;15.20;;;7.00;29.10;;;;;;4994795;28;20214;-77
2021/11/15 09:35:19;;;;;;;23.33;13.50;;;7.00;32.50;;;;;;4992383;28;20460;-77
2021/11/15 09:37:45;;;;;;;24.40;15.20;;;6.90;57.10;;;;;;4992577;28;20216;-76
2021/11/15 09:40:11;;;;;;;24.30;13.90;;;7.00;99.90;;;;;;4979539;28;20558;-75
2021/11/15 09:42:38;;;;;;;21.90;13.70;;;6.90;99.90;;;;;;4990890;28;23921;-76
2021/11/15 09:45:07;;;;;;;22.77;13.20;;;6.90;18.10;;;;;;4990084;28;20482;-77
2021/11/15 09:47:35;;;;;;;23.00;13.57;;;6.80;1.00;;;;;;4992655;28;20451;-76
2021/11/15 09:50:01;;;;;;;23.20;13.90;;;6.80;1.00;;;;;;4995973;28;20454;-77
2021/11/15 09:52:27;;;;;;;26.70;17.00;;;6.90;1.00;;;;;;4988692;28;20448;-77
2021/11/15 09:54:53;;;;;;;31.43;17.27;;;6.90;1.00;;;;;;4989522;28;21119;-77
2021/11/15 09:57:19;;;;;;;27.07;15.27;;;6.90;1.00;;;;;;4987828;28;20231;-77
2021/11/15 09:59:45;;;;;;;20.70;14.27;;;6.90;1.00;;;;;;4979383;28;20233;-77
2021/11/15 10:02:12;;;;;;;24.17;15.07;;;7.00;1.00;;;;;;4981442;28;20483;-77
2021/11/15 10:04:38;;;;;;;22.73;12.53;;;7.00;1.00;;;;;;4982950;28;20564;-76
2021/11/15 10:07:04;;;;;;;22.23;12.63;;;7.00;1.00;;;;;;4979562;28;20984;-77
2021/11/15 10:09:36;;;;;;;22.27;12.93;;;6.90;1.00;;;;;;4982599;28;20458;-77
2021/11/15 10:12:12;;;;;;;23.57;13.07;;;6.90;1.00;;;;;;4982087;28;20211;-77
2021/11/15 10:15:02;;;;;;;23.57;12.90;;;6.90;1.00;;;;;;4980450;28;20450;-77
2021/11/15 10:17:39;;;;;;;21.50;13.03;;;7.00;1.00;;;;;;4984663;28;20914;-77
2021/11/15 10:20:06;;;;;;;21.40;11.80;;;6.90;1.00;;;;;;4989713;28;20493;-76
2021/11/15 10:22:32;;;;;;;19.30;12.93;;;6.90;1.00;;;;;;4967493;28;20482;-77
2021/11/15 10:24:57;;;;;;;18.53;11.50;;;6.80;1.00;;;;;;4981698;28;20451;-76
2021/11/15 10:27:27;;;;;;;20.70;12.30;;;6.80;1.00;;;;;;4985299;28;20459;-77
2021/11/15 10:29:53;;;;;;;20.43;12.80;;;6.80;1.00;;;;;;4970192;28;20741;-76
2021/11/15 10:32:31;;;;;;;22.33;12.20;;;6.80;1.00;;;;;;4984045;28;20611;-76
2021/11/15 10:35:02;;;;;;;20.63;11.97;;;6.70;1.00;;;;;;4986007;28;20548;-76
2021/11/15 10:37:30;;;;;;;21.93;13.80;;;6.80;1.00;;;;;;4986328;28;20452;-77
2021/11/15 10:40:10;;;;;;;19.53;12.33;;;6.80;1.00;;;;;;4988535;28;20451;-77
2021/11/15 10:42:37;;;;;;;19.50;11.90;;;6.90;1.00;;;;;;4958228;28;20490;-77
2021/11/15 10:45:19;;;;;;;19.57;11.40;;;6.90;1.00;;;;;;4981004;28;20448;-77
2021/11/15 10:47:45;;;;;;;16.07;10.87;;;7.00;1.00;;;;;;4988533;28;20562;-77
2021/11/15 10:50:27;;;;;;;20.40;10.97;;;7.00;1.00;;;;;;4983979;28;20463;-77
2021/11/15 10:53:11;;;;;;;14.20;8.83;;;7.00;1.00;;;;;;4993288;28;20600;-77
2021/11/15 10:55:46;;;;;;;17.10;10.10;;;7.10;1.00;;;;;;4992208;28;20447;-76
2021/11/15 10:58:23;;;;;;;15.57;8.70;;;7.00;1.00;;;;;;4987832;28;20516;-76
2021/11/15 11:00:54;;;;;;;13.70;8.70;;;6.90;1.00;;;;;;4991432;28;20455;-76
2021/11/15 11:03:22;;;;;;;16.27;8.30;;;6.90;1.00;;;;;;4985233;28;20479;-77
2021/11/15 11:05:52;;;;;;;15.33;8.67;;;6.90;1.00;;;;;;4989037;28;20459;-77
2021/11/15 11:08:37;;;;;;;13.47;8.47;;;6.80;1.00;;;;;;4989896;28;20451;-77
2021/11/15 11:11:10;;;;;;;17.50;10.03;;;6.80;1.00;;;;;;4996500;28;20466;-77
2021/11/15 11:13:59;;;;;;;13.87;8.40;;;7.00;1.00;;;;;;4993833;28;20455;-77
2021/11/15 11:16:45;;;;;;;13.73;8.70;;;6.90;1.00;;;;;;4989144;28;20451;-76
2021/11/15 11:19:18;;;;;;;15.93;9.40;;;6.90;1.00;;;;;;4994830;28;20475;-76
2021/11/15 11:27:13;;;;;;;16.53;9.20;;;6.90;1.00;;;;;;4987837;28;20439;-74
2021/11/15 11:29:46;;;;;;;16.93;9.37;;;6.80;1.00;;;;;;4991460;28;21015;-77
2021/11/15 11:32:15;;;;;;;16.80;9.10;;;6.90;1.00;;;;;;4987053;28;20444;-77
2021/11/15 11:34:42;;;;;;;13.47;8.30;;;7.00;1.00;;;;;;4991784;28;20533;-77
2021/11/15 11:37:13;;;;;;;18.43;9.47;;;7.00;1.00;;;;;;4996198;28;20538;-76
2021/11/15 11:39:43;;;;;;;15.50;8.60;;;7.00;1.00;;;;;;4994866;28;20443;-77
2021/11/15 11:42:09;;;;;;;13.57;9.93;;;7.00;1.00;;;;;;4978114;28;20454;-77
2021/11/15 11:44:36;;;;;;;14.70;9.20;;;7.10;1.00;;;;;;4991112;28;20450;-77
2021/11/15 11:47:04;;;;;;;17.63;10.33;;;7.20;1.00;;;;;;4988950;28;20444;-77
2021/11/15 11:49:31;;;;;;;17.30;10.53;;;7.10;3.60;;;;;;4992022;28;20589;-77
2021/11/15 11:52:01;;;;;;;16.23;9.67;;;7.10;39.10;;;;;;4992486;28;20439;-77
2021/11/15 11:54:32;;;;;;;14.73;9.40;;;7.10;75.40;;;;;;4989499;28;20529;-76
2021/11/15 11:57:15;;;;;;;16.67;9.63;;;7.10;1.00;;;;;;4987605;28;20515;-76
2021/11/15 12:00:09;;;;;;;16.47;9.80;;;7.10;1.00;;;;;;4990746;28;20450;-77
2021/11/15 12:02:43;;;;;;;12.90;9.07;;;7.20;1.00;;;;;;4982850;28;20479;-76
2021/11/15 12:05:19;;;;;;;14.30;8.57;;;7.20;1.00;;;;;;4982446;28;20846;-77
2021/11/15 12:07:58;;;;;;;15.20;8.37;;;7.20;1.00;;;;;;4986377;28;20462;-76
2021/11/15 12:10:46;;;;;;;13.80;7.57;;;7.10;1.00;;;;;;4985881;28;20455;-76
2021/11/15 12:13:14;;;;;;;14.93;10.00;;;7.00;18.40;;;;;;4983631;28;20554;-76
2021/11/15 12:15:42;;;;;;;14.80;8.90;;;7.10;16.20;;;;;;4983959;28;20442;-76
2021/11/15 12:18:18;;;;;;;18.70;10.87;;;7.10;20.50;;;;;;4984554;28;20859;-77
2021/11/15 12:21:13;;;;;;;21.03;10.57;;;6.90;26.70;;;;;;4986329;28;20480;-77
2021/11/15 12:23:51;;;;;;;18.60;9.77;;;7.00;45.90;;;;;;4973942;28;21037;-77
2021/11/15 12:26:25;;;;;;;21.83;11.40;;;7.10;55.20;;;;;;4984890;28;20442;-77
2021/11/15 12:28:59;;;;;;;16.07;9.03;;;7.10;76.50;;;;;;4987573;28;22756;-76
2021/11/15 12:31:48;;;;;;;18.93;11.03;;;7.10;98.60;;;;;;4984293;28;20499;-75
2021/11/15 12:34:15;;;;;;;21.03;10.57;;;7.10;1.00;;;;;;4984029;28;20483;-76
2021/11/15 12:36:48;;;;;;;15.17;10.70;;;7.10;1.00;;;;;;4986555;28;20455;-76
2021/11/15 12:39:17;;;;;;;17.23;9.90;;;7.20;1.00;;;;;;4981333;28;20455;-76
2021/11/15 12:41:48;;;;;;;17.30;9.30;;;7.20;1.00;;;;;;4983396;28;20567;-76
2021/11/15 12:44:31;;;;;;;15.53;10.17;;;7.10;1.00;;;;;;4982503;28;20466;-76
2021/11/15 12:47:00;;;;;;;17.00;9.67;;;7.10;1.00;;;;;;4977786;28;20925;-77
2021/11/15 12:49:34;;;;;;;14.30;9.07;;;7.20;1.00;;;;;;4982394;28;20471;-76
2021/11/15 12:52:03;;;;;;;14.87;8.30;;;7.10;1.00;;;;;;4981195;28;20501;-76
2021/11/15 12:54:30;;;;;;;14.20;9.47;;;7.10;1.00;;;;;;4986824;28;20453;-77
2021/11/15 12:56:58;;;;;;;17.77;9.70;;;7.10;1.00;;;;;;4984945;28;20474;-76
2021/11/15 12:59:24;;;;;;;14.30;9.07;;;7.00;1.00;;;;;;4984161;28;21198;-77